Time;durP1;ratioP1;P1;durP2;ratioP2;P2;SDS_P1;SDS_P2;PMS_P1;PMS_P2;Temp;Humidity;BMP_temperature;BMP_pressure;BME280_temperature;BME280_humidity;BME280_pressure;Samples;Min_cycle;Max_cycle;Signal;HPM_P1;HPM_P2
2024/03/13 00:01:52;;;;;;;13.57;9.00;;;20.90;52.30;;;;;;10396085;28;20037;-53
2024/03/13 00:06:55;;;;;;;13.85;8.98;;;20.70;52.80;;;;;;10389069;28;20077;-54
2024/03/13 00:11:58;;;;;;;10.82;8.07;;;20.60;52.90;;;;;;10388561;28;20132;-54
2024/03/13 00:17:00;;;;;;;13.90;8.85;;;20.60;53.00;;;;;;10393663;28;20560;-53
2024/03/13 00:22:01;;;;;;;12.13;8.48;;;20.50;53.10;;;;;;10391754;28;20468;-50
2024/03/13 00:27:04;;;;;;;12.10;8.43;;;20.50;53.10;;;;;;10390264;28;20045;-51
2024/03/13 00:32:07;;;;;;;12.07;8.65;;;20.40;53.20;;;;;;10396500;28;20137;-51
2024/03/13 00:37:08;;;;;;;12.13;8.57;;;20.30;53.20;;;;;;10390575;28;20083;-52
2024/03/13 00:42:12;;;;;;;11.68;8.27;;;20.30;53.30;;;;;;10398085;28;20458;-51
2024/03/13 00:47:14;;;;;;;11.63;8.13;;;20.30;53.30;;;;;;10404100;28;20046;-51
2024/03/13 00:52:16;;;;;;;12.43;8.57;;;20.20;53.30;;;;;;10396056;28;20096;-52
2024/03/13 00:57:19;;;;;;;11.55;7.88;;;20.20;53.30;;;;;;10393909;28;20574;-49
2024/03/13 01:02:21;;;;;;;10.52;7.55;;;20.20;53.40;;;;;;10397637;28;20056;-53
2024/03/13 01:07:23;;;;;;;10.32;7.63;;;20.20;53.20;;;;;;10393484;28;20052;-55
2024/03/13 01:12:26;;;;;;;10.88;7.53;;;20.10;53.20;;;;;;10391010;28;20042;-51
2024/03/13 01:17:27;;;;;;;10.20;7.80;;;20.10;53.10;;;;;;10402294;28;20133;-49
2024/03/13 01:22:30;;;;;;;9.45;6.97;;;20.00;53.20;;;;;;10397946;28;20053;-55
2024/03/13 01:27:33;;;;;;;10.00;6.80;;;20.00;53.10;;;;;;10399650;28;20075;-54
2024/03/13 01:32:35;;;;;;;9.07;6.57;;;20.00;53.10;;;;;;10393024;28;20136;-52
2024/03/13 01:59:19;;;;;;;10.05;7.00;;;19.80;53.20;;;;;;10400191;28;20041;-51
2024/03/13 02:04:21;;;;;;;9.95;7.20;;;19.90;53.10;;;;;;10398654;28;20058;-51
2024/03/13 02:09:24;;;;;;;10.27;7.50;;;19.90;53.00;;;;;;10396152;28;20111;-52
2024/03/13 02:14:28;;;;;;;10.60;7.95;;;19.80;53.00;;;;;;10390970;28;20068;-51
2024/03/13 02:19:30;;;;;;;12.05;8.40;;;19.80;53.00;;;;;;10394865;28;20423;-54
2024/03/13 02:24:32;;;;;;;12.68;9.07;;;19.80;53.10;;;;;;10399345;28;20074;-51
2024/03/13 02:29:33;;;;;;;11.90;9.20;;;19.80;53.00;;;;;;10378310;28;20053;-52
2024/03/13 02:34:38;;;;;;;12.98;8.93;;;19.80;52.90;;;;;;10376480;28;20073;-50
2024/03/13 02:39:40;;;;;;;13.35;9.10;;;19.70;53.00;;;;;;10392146;28;20041;-53
2024/03/13 02:44:43;;;;;;;13.30;9.93;;;19.70;53.10;;;;;;10380522;28;20061;-51
2024/03/13 02:49:45;;;;;;;14.90;10.20;;;19.60;53.10;;;;;;10371127;28;20151;-56
2024/03/13 02:54:47;;;;;;;13.23;9.82;;;19.70;52.90;;;;;;10395163;28;20095;-52
2024/03/13 02:59:49;;;;;;;14.43;10.70;;;19.60;53.00;;;;;;10399771;28;20128;-52
2024/03/13 03:04:51;;;;;;;14.10;10.57;;;19.60;52.80;;;;;;10398738;28;20507;-55
2024/03/13 03:09:53;;;;;;;14.73;10.85;;;19.60;52.90;;;;;;10381927;28;20579;-49
2024/03/13 03:14:55;;;;;;;14.27;10.52;;;19.50;53.00;;;;;;10379032;28;20049;-50
2024/03/13 03:19:58;;;;;;;13.95;11.00;;;19.60;52.90;;;;;;10377926;28;20045;-51
2024/03/13 03:25:00;;;;;;;14.45;11.30;;;19.50;53.00;;;;;;10371470;28;20038;-52
2024/03/13 03:30:03;;;;;;;13.90;11.27;;;19.50;52.90;;;;;;10392744;28;20045;-56
2024/03/13 03:35:06;;;;;;;15.80;11.18;;;19.40;52.90;;;;;;10381293;28;20123;-53
2024/03/13 03:40:13;;;;;;;14.23;11.45;;;19.30;53.10;;;;;;10380746;28;20050;-52
2024/03/13 03:45:16;;;;;;;15.32;11.32;;;19.30;53.10;;;;;;10386269;28;20534;-49
2024/03/13 03:50:18;;;;;;;14.75;11.55;;;19.30;53.00;;;;;;10377696;28;20049;-52
2024/03/13 03:55:21;;;;;;;14.25;11.25;;;19.30;52.90;;;;;;10391584;28;20129;-54
2024/03/13 04:00:23;;;;;;;15.27;11.48;;;19.30;53.10;;;;;;10378776;28;20087;-57
2024/03/13 04:05:26;;;;;;;14.18;11.77;;;19.10;53.40;;;;;;10379096;28;20053;-52
2024/03/13 04:10:28;;;;;;;15.15;11.95;;;20.30;51.20;;;;;;10377358;28;20450;-50
2024/03/13 04:15:29;;;;;;;16.75;12.60;;;20.80;50.80;;;;;;10378476;28;20128;-50
2024/03/13 04:20:31;;;;;;;14.07;11.63;;;20.90;50.70;;;;;;10399024;28;20103;-53
2024/03/13 04:25:36;;;;;;;13.55;11.27;;;21.20;50.60;;;;;;10378816;28;20140;-55
2024/03/13 04:30:40;;;;;;;24.50;12.02;;;21.40;50.20;;;;;;10393759;28;20049;-52
2024/03/13 04:35:42;;;;;;;34.72;14.25;;;21.60;50.50;;;;;;10379421;28;20064;-52
2024/03/13 04:40:44;;;;;;;31.88;13.82;;;21.80;50.60;;;;;;10377847;28;20050;-53
2024/03/13 04:45:45;;;;;;;23.15;12.60;;;21.80;51.30;;;;;;10377791;28;20045;-56
2024/03/13 04:50:47;;;;;;;28.77;13.43;;;21.90;50.90;;;;;;10379139;28;20045;-50
2024/03/13 04:55:49;;;;;;;21.83;12.20;;;22.10;50.50;;;;;;10379995;28;20473;-53
2024/03/13 05:00:54;;;;;;;19.63;12.07;;;22.20;50.30;;;;;;10374519;28;20073;-51
2024/03/13 05:05:56;;;;;;;18.20;11.57;;;22.20;50.10;;;;;;10389162;28;20566;-52
2024/03/13 05:10:58;;;;;;;19.15;11.40;;;22.20;50.10;;;;;;10387655;28;20483;-50
2024/03/13 05:15:59;;;;;;;20.20;11.52;;;22.20;50.40;;;;;;10393148;28;20555;-55
2024/03/13 05:21:01;;;;;;;18.83;9.90;;;22.30;51.80;;;;;;10397120;28;20422;-54
2024/03/13 05:26:03;;;;;;;17.10;11.05;;;22.50;51.90;;;;;;10383741;28;20073;-52
2024/03/13 05:31:07;;;;;;;18.77;10.73;;;22.50;52.50;;;;;;10402289;28;20091;-61
2024/03/13 05:36:11;;;;;;;18.63;11.02;;;22.40;52.60;;;;;;10404057;28;20068;-61
2024/03/13 05:41:14;;;;;;;22.13;12.63;;;22.40;52.60;;;;;;10401310;28;20061;-58
2024/03/13 05:46:15;;;;;;;32.20;13.00;;;22.40;52.70;;;;;;10396859;28;20411;-57
2024/03/13 05:51:17;;;;;;;28.88;12.52;;;22.50;53.10;;;;;;10382561;28;20449;-60
2024/03/13 05:56:21;;;;;;;31.60;15.88;;;22.50;53.80;;;;;;10385573;28;20125;-55
2024/03/13 06:01:26;;;;;;;27.70;15.20;;;22.60;54.30;;;;;;10382621;28;20053;-55
2024/03/13 06:06:28;;;;;;;57.85;51.67;;;22.70;53.80;;;;;;10396715;28;20042;-56
2024/03/13 06:11:30;;;;;;;74.60;55.28;;;22.60;55.70;;;;;;10373714;28;20124;-53
2024/03/13 06:16:32;;;;;;;129.02;64.03;;;22.70;55.10;;;;;;10370604;28;20077;-58
2024/03/13 06:21:34;;;;;;;120.95;69.95;;;22.80;53.90;;;;;;10371696;28;20133;-56
2024/03/13 06:26:36;;;;;;;85.55;56.30;;;22.70;53.70;;;;;;10370179;28;20108;-59
2024/03/13 06:31:39;;;;;;;83.00;51.53;;;22.60;53.30;;;;;;10400143;28;20076;-59
2024/03/13 06:36:42;;;;;;;69.13;41.20;;;22.40;53.40;;;;;;10404820;28;20072;-59
2024/03/13 06:41:44;;;;;;;60.85;37.45;;;22.40;52.90;;;;;;10385895;28;20054;-51
2024/03/13 06:46:45;;;;;;;61.25;40.40;;;22.20;53.10;;;;;;10385273;28;20060;-54
2024/03/13 06:51:47;;;;;;;53.78;38.45;;;22.30;52.90;;;;;;10385344;28;20064;-55
2024/03/13 06:56:49;;;;;;;49.03;32.15;;;22.10;53.10;;;;;;10383619;28;20124;-60
2024/03/13 07:01:52;;;;;;;50.72;31.38;;;22.20;52.10;;;;;;10414906;28;20042;-59
2024/03/13 07:06:57;;;;;;;43.60;26.00;;;22.10;51.80;;;;;;10382362;28;20080;-58
2024/03/13 07:11:59;;;;;;;39.97;26.27;;;21.90;51.60;;;;;;10383845;28;20050;-58
2024/03/13 07:17:01;;;;;;;39.45;25.10;;;21.80;52.20;;;;;;10377034;28;20041;-58
2024/03/13 07:22:03;;;;;;;39.42;23.98;;;21.80;52.10;;;;;;10370375;28;20310;-54
2024/03/13 07:27:05;;;;;;;32.38;22.45;;;21.70;52.40;;;;;;10368258;28;20129;-57
2024/03/13 07:32:07;;;;;;;30.83;20.90;;;21.60;52.30;;;;;;10376647;28;20133;-55
2024/03/13 07:37:10;;;;;;;28.88;21.02;;;21.70;52.10;;;;;;10377219;28;20057;-56
2024/03/13 07:42:11;;;;;;;27.17;19.42;;;21.50;52.30;;;;;;10381016;28;20467;-58
2024/03/13 07:47:13;;;;;;;32.33;19.73;;;21.50;52.20;;;;;;10382225;28;20662;-50
2024/03/13 07:52:15;;;;;;;26.50;17.70;;;21.40;52.20;;;;;;10380449;28;20168;-53
2024/03/13 07:57:17;;;;;;;27.92;18.17;;;21.30;52.20;;;;;;10377058;28;20488;-52
2024/03/13 08:02:19;;;;;;;26.00;18.00;;;21.40;51.90;;;;;;10372924;28;20053;-53
2024/03/13 08:07:25;;;;;;;28.30;17.42;;;21.30;51.80;;;;;;10375688;28;20053;-52
2024/03/13 08:12:27;;;;;;;19.42;14.63;;;21.20;52.10;;;;;;10378255;28;20099;-52
2024/03/13 08:17:29;;;;;;;21.02;14.60;;;21.20;51.90;;;;;;10381193;28;20124;-56
2024/03/13 08:22:31;;;;;;;22.02;14.38;;;21.20;51.80;;;;;;10383340;28;20133;-50
2024/03/13 08:27:33;;;;;;;20.33;14.23;;;21.20;51.70;;;;;;10375052;28;20418;-53
2024/03/13 08:32:35;;;;;;;18.42;13.02;;;21.10;51.50;;;;;;10373167;28;20073;-51
2024/03/13 08:37:37;;;;;;;22.38;12.68;;;21.10;51.60;;;;;;10369774;28;20072;-51
2024/03/13 08:42:40;;;;;;;15.45;11.20;;;21.20;51.40;;;;;;10369312;28;20153;-55
2024/03/13 08:47:42;;;;;;;16.38;11.15;;;21.30;51.40;;;;;;10376162;28;20504;-52
2024/03/13 08:52:44;;;;;;;14.27;10.40;;;21.20;51.30;;;;;;10377567;28;20092;-53
2024/03/13 08:57:46;;;;;;;12.48;9.80;;;21.20;51.40;;;;;;10376859;28;20088;-51
2024/03/13 09:02:48;;;;;;;13.85;9.57;;;21.20;51.20;;;;;;10355615;28;20447;-56
2024/03/13 09:07:49;;;;;;;12.10;9.32;;;21.20;51.30;;;;;;10401006;28;20065;-52
2024/03/13 09:12:51;;;;;;;11.77;9.25;;;21.10;51.30;;;;;;10398746;28;20069;-55
2024/03/13 09:17:53;;;;;;;14.82;8.88;;;21.00;51.20;;;;;;10384333;28;20145;-52
2024/03/13 09:22:56;;;;;;;12.32;7.95;;;21.00;51.40;;;;;;10388090;28;20129;-50
2024/03/13 09:27:58;;;;;;;10.05;7.97;;;21.00;51.40;;;;;;10383063;28;20136;-50
2024/03/13 09:33:03;;;;;;;10.30;7.80;;;21.00;51.10;;;;;;10382928;28;20140;-50
2024/03/13 09:38:06;;;;;;;10.85;7.32;;;20.90;51.20;;;;;;10383528;28;20091;-53
2024/03/13 09:43:07;;;;;;;9.02;6.72;;;20.90;51.30;;;;;;10387323;28;20077;-54
2024/03/13 09:48:09;;;;;;;7.95;6.93;;;20.90;51.20;;;;;;10376121;28;20140;-56
2024/03/13 09:53:11;;;;;;;8.35;6.32;;;20.90;51.20;;;;;;10396986;28;20133;-51
2024/03/13 09:58:13;;;;;;;7.55;6.10;;;21.00;51.20;;;;;;10393842;28;20114;-50
2024/03/13 10:03:19;;;;;;;8.43;6.00;;;20.90;51.10;;;;;;10416244;28;20448;-52
2024/03/13 10:08:21;;;;;;;9.73;6.70;;;21.00;50.80;;;;;;10412240;28;20468;-50
2024/03/13 10:13:23;;;;;;;8.32;5.85;;;21.00;50.60;;;;;;10402635;28;20136;-50
2024/03/13 10:18:24;;;;;;;7.32;5.80;;;21.10;50.60;;;;;;10383648;28;20073;-57
2024/03/13 10:23:26;;;;;;;6.00;5.07;;;21.10;50.50;;;;;;10385378;28;20136;-56
2024/03/13 10:28:28;;;;;;;7.20;5.25;;;21.10;50.40;;;;;;10383353;28;20049;-51
2024/03/13 10:33:30;;;;;;;7.53;5.25;;;21.20;50.30;;;;;;10378784;28;20496;-50
2024/03/13 10:38:33;;;;;;;6.05;4.75;;;21.20;50.10;;;;;;10376361;28;20133;-50
2024/03/13 10:43:35;;;;;;;6.78;5.07;;;21.10;50.00;;;;;;10373886;28;20423;-51
2024/03/13 10:48:38;;;;;;;6.63;4.85;;;21.10;49.90;;;;;;10377988;28;20147;-50
2024/03/13 10:53:40;;;;;;;5.50;4.65;;;21.00;49.80;;;;;;10375215;28;20492;-51
2024/03/13 10:58:45;;;;;;;6.18;4.53;;;21.00;49.70;;;;;;10377348;28;20050;-57
2024/03/13 11:03:46;;;;;;;5.22;4.40;;;21.00;49.80;;;;;;10381825;28;20128;-51
2024/03/13 11:08:48;;;;;;;4.72;3.70;;;21.00;49.90;;;;;;10378355;28;20128;-55
2024/03/13 11:13:53;;;;;;;4.32;3.63;;;20.90;50.00;;;;;;10380922;28;20129;-54
2024/03/13 11:18:55;;;;;;;4.65;3.63;;;20.90;50.00;;;;;;10385866;28;20472;-54
2024/03/13 11:23:58;;;;;;;4.47;3.65;;;20.90;49.90;;;;;;10374071;28;20184;-54
2024/03/13 11:29:00;;;;;;;3.83;3.40;;;21.00;49.90;;;;;;10379571;28;20412;-53
2024/03/13 11:34:02;;;;;;;5.18;3.53;;;20.90;49.90;;;;;;10381955;28;20118;-53
2024/03/13 11:39:04;;;;;;;4.15;3.10;;;21.10;49.80;;;;;;10380077;28;20046;-53
2024/03/13 11:44:07;;;;;;;3.78;3.22;;;21.10;49.80;;;;;;10374156;28;20046;-53
2024/03/13 11:49:09;;;;;;;3.65;2.95;;;21.10;49.60;;;;;;10369192;28;20428;-51
2024/03/13 11:54:13;;;;;;;3.63;3.10;;;21.10;49.40;;;;;;10373579;28;20037;-52
2024/03/13 11:59:16;;;;;;;3.83;3.10;;;21.20;49.50;;;;;;10377042;28;20137;-53
2024/03/13 12:04:19;;;;;;;4.18;3.28;;;21.10;49.40;;;;;;10366554;28;20492;-53
2024/03/13 12:09:22;;;;;;;3.17;2.70;;;21.10;49.40;;;;;;10382442;28;20053;-51
2024/03/13 12:14:25;;;;;;;4.00;2.92;;;21.10;49.40;;;;;;10374749;28;20041;-54
2024/03/13 12:19:27;;;;;;;3.33;2.88;;;21.10;49.50;;;;;;10389720;28;20136;-52
2024/03/13 12:24:29;;;;;;;2.92;2.63;;;21.10;49.50;;;;;;10374389;28;20046;-52
2024/03/13 12:29:34;;;;;;;4.05;2.78;;;21.00;49.60;;;;;;10380496;28;20355;-53
2024/03/13 12:34:36;;;;;;;3.53;2.80;;;20.90;49.60;;;;;;10379708;28;20049;-51
2024/03/13 12:39:39;;;;;;;3.63;2.67;;;20.90;49.80;;;;;;10376713;28;20071;-50
2024/03/13 12:44:40;;;;;;;2.58;2.28;;;20.90;49.80;;;;;;10384759;28;20049;-54
2024/03/13 12:50:00;;;;;;;3.63;2.47;;;20.90;49.80;;;;;;10385394;28;20129;-54
2024/03/13 12:55:03;;;;;;;3.22;2.53;;;20.90;49.80;;;;;;10398553;28;20034;-51
2024/03/13 13:00:14;;;;;;;4.43;2.78;;;20.90;50.00;;;;;;10377042;28;20566;-52
2024/03/13 13:05:16;;;;;;;2.80;2.50;;;21.00;49.70;;;;;;10384381;28;20128;-51
2024/03/13 13:10:20;;;;;;;3.05;2.45;;;21.10;49.50;;;;;;10371415;28;20069;-58
2024/03/13 13:15:22;;;;;;;2.42;2.22;;;21.20;49.30;;;;;;10385076;28;20038;-57
2024/03/13 13:20:24;;;;;;;2.63;2.25;;;21.20;49.40;;;;;;10389641;28;20057;-54
2024/03/13 13:25:26;;;;;;;2.75;2.47;;;21.20;49.30;;;;;;10380559;28;20116;-54
2024/03/13 13:30:29;;;;;;;2.72;2.35;;;21.30;49.30;;;;;;10377400;28;20049;-53
2024/03/13 13:35:31;;;;;;;2.33;2.10;;;21.20;49.30;;;;;;10383493;28;20452;-56
2024/03/13 13:40:35;;;;;;;2.92;2.40;;;21.10;49.50;;;;;;10384438;28;20479;-51
2024/03/13 13:45:39;;;;;;;2.25;2.05;;;21.10;49.70;;;;;;10384804;28;20038;-50
2024/03/13 13:50:41;;;;;;;2.10;1.90;;;21.20;49.50;;;;;;10398309;28;20124;-53
2024/03/13 13:55:44;;;;;;;2.60;2.17;;;21.40;49.00;;;;;;10401140;28;20088;-50
2024/03/13 14:00:46;;;;;;;2.50;2.13;;;21.50;48.80;;;;;;10402249;28;20077;-50
2024/03/13 14:05:47;;;;;;;2.88;2.08;;;21.60;48.60;;;;;;10385529;28;20051;-54
2024/03/13 14:10:54;;;;;;;2.08;1.88;;;21.70;48.30;;;;;;10379414;28;20045;-52
2024/03/13 14:15:56;;;;;;;2.35;1.83;;;21.80;48.30;;;;;;10377194;28;20092;-60
2024/03/13 14:20:58;;;;;;;2.30;2.03;;;21.70;48.50;;;;;;10373940;28;20140;-60
2024/03/13 14:25:59;;;;;;;2.20;2.00;;;21.90;48.30;;;;;;10379818;28;20116;-58
2024/03/13 14:31:02;;;;;;;3.30;2.13;;;21.90;48.20;;;;;;10377887;28;20041;-61
2024/03/13 14:36:04;;;;;;;2.63;2.28;;;22.10;47.80;;;;;;10377387;28;20033;-58
2024/03/13 14:41:10;;;;;;;2.20;2.00;;;22.10;47.70;;;;;;10378570;28;20492;-60
2024/03/13 14:46:12;;;;;;;2.25;2.05;;;22.20;47.60;;;;;;10377408;28;20037;-60
2024/03/13 14:51:14;;;;;;;2.45;1.92;;;22.20;47.60;;;;;;10387777;28;20200;-58
2024/03/13 14:56:15;;;;;;;2.40;2.13;;;22.20;47.60;;;;;;10376867;28;20431;-60
2024/03/13 15:01:17;;;;;;;2.13;1.92;;;22.10;47.80;;;;;;10383987;28;20121;-51
2024/03/13 15:06:19;;;;;;;1.90;1.75;;;22.30;47.50;;;;;;10384527;28;20064;-56
2024/03/13 15:11:23;;;;;;;2.08;1.90;;;22.30;47.60;;;;;;10379643;28;20176;-50
2024/03/13 15:16:24;;;;;;;1.88;1.75;;;22.30;47.70;;;;;;10366063;28;20042;-50
2024/03/13 15:21:26;;;;;;;2.08;1.88;;;22.30;47.70;;;;;;10385228;28;20042;-53
2024/03/13 15:26:28;;;;;;;2.88;1.92;;;22.20;47.60;;;;;;10385246;28;20045;-54
2024/03/13 15:31:30;;;;;;;4.15;1.80;;;22.30;47.70;;;;;;10382648;28;20051;-55
2024/03/13 15:36:32;;;;;;;2.53;1.98;;;22.30;47.80;;;;;;10368813;28;20121;-50
2024/03/13 15:41:34;;;;;;;4.28;2.33;;;22.30;48.00;;;;;;10379979;28;20066;-55
2024/03/13 15:46:37;;;;;;;5.40;2.03;;;22.30;48.00;;;;;;10376469;28;20049;-49
2024/03/13 15:51:42;;;;;;;4.45;1.85;;;22.20;48.60;;;;;;10393040;28;20058;-51
2024/03/13 15:56:44;;;;;;;3.33;2.20;;;22.20;48.60;;;;;;10393483;28;20073;-56
2024/03/13 16:01:46;;;;;;;3.28;2.30;;;22.30;48.40;;;;;;10378426;28;20754;-53
2024/03/13 16:06:48;;;;;;;4.03;1.90;;;22.30;48.40;;;;;;10398592;28;20124;-53
2024/03/13 16:11:50;;;;;;;2.65;1.80;;;22.20;48.70;;;;;;10379784;28;20098;-54
2024/03/13 16:16:53;;;;;;;2.38;1.90;;;22.20;48.70;;;;;;10399072;28;20079;-50
2024/03/13 16:21:55;;;;;;;2.50;1.80;;;22.20;48.70;;;;;;10411625;28;20764;-50
2024/03/13 16:26:57;;;;;;;5.18;1.60;;;22.40;48.50;;;;;;10405712;28;20057;-50
2024/03/13 16:31:59;;;;;;;4.50;1.58;;;22.50;48.60;;;;;;10398988;28;20046;-53
2024/03/13 16:37:01;;;;;;;7.10;1.70;;;22.50;48.30;;;;;;10410233;28;20044;-53
2024/03/13 16:42:03;;;;;;;3.25;1.60;;;22.60;48.60;;;;;;10375298;28;20129;-49
2024/03/13 16:47:05;;;;;;;2.13;1.40;;;22.40;50.00;;;;;;10395755;28;20069;-51
2024/03/13 16:52:06;;;;;;;4.38;1.20;;;22.40;50.50;;;;;;10378327;28;20574;-54
2024/03/13 16:57:08;;;;;;;8.45;1.52;;;22.40;50.90;;;;;;10394710;28;20127;-49
2024/03/13 17:02:10;;;;;;;4.15;1.40;;;22.50;50.80;;;;;;10365612;28;20069;-53
2024/03/13 17:07:12;;;;;;;1.50;1.30;;;22.80;50.20;;;;;;10375719;28;20045;-51
2024/03/13 17:12:14;;;;;;;3.58;1.40;;;22.90;49.60;;;;;;10381705;28;20140;-56
2024/03/13 17:17:16;;;;;;;3.97;1.50;;;22.80;49.60;;;;;;10374484;28;20145;-50
2024/03/13 17:22:19;;;;;;;2.58;1.25;;;22.90;49.60;;;;;;10379062;28;20128;-50
2024/03/13 17:27:21;;;;;;;1.83;1.30;;;23.10;49.00;;;;;;10389822;28;20061;-56
2024/03/13 17:32:23;;;;;;;2.78;1.40;;;23.40;47.40;;;;;;10390090;28;20125;-60
2024/03/13 17:37:27;;;;;;;1.90;1.30;;;23.70;46.80;;;;;;10386362;28;20124;-59
2024/03/13 17:42:29;;;;;;;1.73;1.30;;;23.60;47.00;;;;;;10417385;28;20042;-57
2024/03/13 17:47:32;;;;;;;3.83;1.35;;;23.70;46.70;;;;;;10389633;28;20039;-56
2024/03/13 17:52:34;;;;;;;3.45;1.63;;;23.70;46.80;;;;;;10400258;28;20057;-59
2024/03/13 17:57:36;;;;;;;5.03;1.40;;;23.60;47.00;;;;;;10380799;28;20041;-60
2024/03/13 18:02:38;;;;;;;3.45;1.15;;;23.50;47.10;;;;;;10367878;28;20054;-58
2024/03/13 18:07:41;;;;;;;3.22;1.38;;;23.60;47.50;;;;;;10388460;28;20668;-58
2024/03/13 18:12:43;;;;;;;2.72;1.27;;;23.80;47.60;;;;;;10401368;28;20499;-58
2024/03/13 18:17:45;;;;;;;2.65;1.10;;;23.70;49.00;;;;;;10383430;28;20552;-58
2024/03/13 18:22:47;;;;;;;4.00;1.00;;;23.40;50.30;;;;;;10381034;28;20049;-59
2024/03/13 18:27:49;;;;;;;6.18;1.10;;;24.20;49.20;;;;;;10382665;28;20037;-59
2024/03/13 18:32:51;;;;;;;2.53;0.90;;;24.60;49.20;;;;;;10383819;28;20065;-55
2024/03/13 18:37:53;;;;;;;10.65;1.33;;;24.70;49.50;;;;;;10383822;28;20120;-55
2024/03/13 18:42:55;;;;;;;13.95;1.30;;;24.20;50.50;;;;;;10381087;28;20128;-56
2024/03/13 18:47:56;;;;;;;6.60;1.25;;;23.90;51.30;;;;;;10391313;28;20053;-59
2024/03/13 18:52:58;;;;;;;4.70;1.20;;;24.00;51.40;;;;;;10381851;28;20128;-57
2024/03/13 18:58:00;;;;;;;3.00;1.13;;;23.80;51.90;;;;;;10381472;28;20126;-58
2024/03/13 19:03:02;;;;;;;5.15;1.35;;;23.80;52.10;;;;;;10380661;28;20136;-59
2024/03/13 19:08:04;;;;;;;2.28;1.15;;;23.80;52.40;;;;;;10382540;28;20065;-60
2024/03/13 19:13:06;;;;;;;2.25;0.88;;;23.80;52.20;;;;;;10380649;28;20498;-58
2024/03/13 19:18:08;;;;;;;2.58;1.00;;;24.00;51.90;;;;;;10382146;28;20049;-57
2024/03/13 19:23:10;;;;;;;1.75;0.93;;;23.80;51.80;;;;;;10395579;28;20050;-58
2024/03/13 19:28:13;;;;;;;3.80;0.90;;;23.40;53.20;;;;;;10372528;28;20073;-59
2024/03/13 19:33:15;;;;;;;17.63;2.42;;;23.50;52.90;;;;;;10398019;28;20069;-53
2024/03/13 19:38:17;;;;;;;7.70;1.45;;;23.40;53.10;;;;;;10385982;28;20045;-51
2024/03/13 19:43:19;;;;;;;6.70;1.10;;;23.20;53.30;;;;;;10397470;28;20095;-55
2024/03/13 19:48:22;;;;;;;7.68;1.10;;;23.30;52.40;;;;;;10413892;28;20597;-52
2024/03/13 19:53:24;;;;;;;5.03;2.30;;;23.20;52.60;;;;;;10413404;28;20099;-53
2024/03/13 19:58:25;;;;;;;7.40;3.08;;;23.10;53.00;;;;;;10381442;28;20124;-53
2024/03/13 20:03:27;;;;;;;9.40;2.58;;;23.10;52.90;;;;;;10397131;28;20050;-55
2024/03/13 20:08:29;;;;;;;7.28;3.10;;;23.00;52.70;;;;;;10378865;28;20080;-53
2024/03/13 20:13:31;;;;;;;6.80;3.15;;;23.00;52.70;;;;;;10382563;28;20099;-51
2024/03/13 20:18:33;;;;;;;7.53;3.00;;;22.90;52.60;;;;;;10400055;28;20077;-51
2024/03/13 20:23:35;;;;;;;9.68;3.13;;;22.70;52.90;;;;;;10378383;28;20128;-53
2024/03/13 20:28:37;;;;;;;6.78;3.15;;;22.70;52.80;;;;;;10378193;28;20154;-54
2024/03/13 20:33:39;;;;;;;6.85;3.05;;;22.60;52.80;;;;;;10378669;28;20046;-55
2024/03/13 20:38:41;;;;;;;5.07;3.00;;;22.50;52.70;;;;;;10393737;28;20136;-51
2024/03/13 20:43:43;;;;;;;9.05;3.15;;;22.40;53.10;;;;;;10376174;28;20060;-51
2024/03/13 20:48:44;;;;;;;4.88;3.03;;;22.30;53.10;;;;;;10378904;28;20049;-51
2024/03/13 20:53:46;;;;;;;4.93;2.85;;;22.20;53.10;;;;;;10381786;28;20047;-52
2024/03/13 20:58:50;;;;;;;4.80;2.90;;;22.00;53.30;;;;;;10379557;28;20140;-53
2024/03/13 21:03:52;;;;;;;6.10;2.50;;;22.10;53.20;;;;;;10406810;28;20132;-53
2024/03/13 21:08:55;;;;;;;5.30;2.85;;;22.00;53.10;;;;;;10387248;28;20041;-53
2024/03/13 21:13:57;;;;;;;6.93;2.60;;;21.90;53.20;;;;;;10406839;28;20571;-50
2024/03/13 21:19:00;;;;;;;5.28;2.33;;;22.00;53.00;;;;;;10386361;28;20049;-57
2024/03/13 21:24:02;;;;;;;4.47;2.40;;;22.00;52.60;;;;;;10379944;28;20132;-52
2024/03/13 21:29:06;;;;;;;4.78;2.58;;;21.90;53.00;;;;;;10387167;28;20137;-53
2024/03/13 21:34:08;;;;;;;7.10;2.80;;;21.90;52.70;;;;;;10384877;28;20088;-50
2024/03/13 21:39:10;;;;;;;4.97;2.35;;;21.70;52.90;;;;;;10382243;28;20053;-52
2024/03/13 21:44:12;;;;;;;2.75;2.28;;;21.80;52.70;;;;;;10382013;28;20128;-53
2024/03/13 21:49:14;;;;;;;3.72;2.55;;;21.80;52.60;;;;;;10403268;28;20135;-51
2024/03/13 21:54:15;;;;;;;4.47;2.60;;;21.60;52.90;;;;;;10399618;28;20140;-51
2024/03/13 21:59:18;;;;;;;3.67;2.40;;;21.70;52.50;;;;;;10376461;28;20141;-53
2024/03/13 22:04:20;;;;;;;4.85;2.55;;;21.80;52.30;;;;;;10389412;28;20042;-52
2024/03/13 22:09:23;;;;;;;3.45;2.33;;;21.70;52.30;;;;;;10388393;28;20054;-50
2024/03/13 22:14:26;;;;;;;4.38;2.38;;;21.80;52.70;;;;;;10408155;28;20126;-54
2024/03/13 22:19:27;;;;;;;2.72;2.42;;;21.90;51.70;;;;;;10386001;28;20096;-58
2024/03/13 22:24:29;;;;;;;3.63;2.50;;;21.60;52.20;;;;;;10384477;28;20045;-60
2024/03/13 22:29:32;;;;;;;5.25;2.55;;;21.50;52.30;;;;;;10386327;28;20042;-60
2024/03/13 22:34:35;;;;;;;3.03;2.15;;;21.50;52.10;;;;;;10380897;28;20045;-54
2024/03/13 22:39:36;;;;;;;3.97;2.20;;;21.60;51.90;;;;;;10366002;28;20050;-56
2024/03/13 22:44:41;;;;;;;3.17;2.35;;;21.30;52.30;;;;;;10354928;28;20121;-54
2024/03/13 22:49:46;;;;;;;3.13;2.13;;;21.30;52.20;;;;;;10369321;28;20045;-54
2024/03/13 22:54:48;;;;;;;3.30;2.08;;;21.30;52.30;;;;;;10377653;28;20091;-51
2024/03/13 22:59:50;;;;;;;3.33;2.30;;;21.20;52.40;;;;;;10382665;28;20750;-52
2024/03/13 23:04:55;;;;;;;3.95;2.38;;;21.10;52.60;;;;;;10394215;28;20073;-55
2024/03/13 23:09:57;;;;;;;3.67;2.10;;;21.00;52.50;;;;;;10379990;28;20557;-54
2024/03/13 23:15:00;;;;;;;4.97;2.15;;;21.00;52.40;;;;;;10383868;28;20050;-51
2024/03/13 23:20:02;;;;;;;2.60;2.08;;;20.90;52.50;;;;;;10400979;28;20053;-52
2024/03/13 23:25:05;;;;;;;4.07;2.35;;;21.00;52.50;;;;;;10360583;28;20072;-54
2024/03/13 23:30:07;;;;;;;4.03;2.05;;;20.90;52.50;;;;;;10340298;28;20083;-57
2024/03/13 23:35:10;;;;;;;3.47;2.42;;;20.90;52.40;;;;;;10361783;28;20077;-55
2024/03/13 23:40:12;;;;;;;3.88;2.30;;;20.90;52.40;;;;;;10363403;28;20085;-53
2024/03/13 23:45:14;;;;;;;3.28;2.20;;;20.70;52.50;;;;;;10338649;28;20049;-56
2024/03/13 23:50:18;;;;;;;3.50;2.28;;;20.70;52.50;;;;;;10337891;28;20133;-60
2024/03/13 23:55:19;;;;;;;3.25;2.13;;;20.70;52.50;;;;;;10333247;28;20050;-59
